sensor_id;sensor_type;location;lat;lon;timestamp;P1;durP1;ratioP1;P2;durP2;ratioP2
17592;SDS011;8915;51.760;14.300;2022-09-11T00:00:48;3.00;;;2.70;;
17592;SDS011;8915;51.760;14.300;2022-09-11T00:03:16;2.80;;;2.60;;
17592;SDS011;8915;51.760;14.300;2022-09-11T00:05:44;3.63;;;2.80;;
17592;SDS011;8915;51.760;14.300;2022-09-11T00:08:11;3.07;;;2.87;;
17592;SDS011;8915;51.760;14.300;2022-09-11T00:10:41;3.27;;;2.97;;
17592;SDS011;8915;51.760;14.300;2022-09-11T00:13:10;3.10;;;2.77;;
17592;SDS011;8915;51.760;14.300;2022-09-11T00:15:39;3.37;;;2.80;;
17592;SDS011;8915;51.760;14.300;2022-09-11T00:18:09;2.93;;;2.63;;
17592;SDS011;8915;51.760;14.300;2022-09-11T00:20:37;3.13;;;2.70;;
17592;SDS011;8915;51.760;14.300;2022-09-11T00:23:04;3.13;;;2.83;;
17592;SDS011;8915;51.760;14.300;2022-09-11T00:25:31;3.30;;;2.60;;
17592;SDS011;8915;51.760;14.300;2022-09-11T00:27:58;2.73;;;2.37;;
17592;SDS011;8915;51.760;14.300;2022-09-11T00:30:25;3.50;;;2.87;;
17592;SDS011;8915;51.760;14.300;2022-09-11T00:32:52;3.60;;;3.10;;
17592;SDS011;8915;51.760;14.300;2022-09-11T00:35:20;2.90;;;2.63;;
17592;SDS011;8915;51.760;14.300;2022-09-11T00:37:47;2.97;;;2.50;;
17592;SDS011;8915;51.760;14.300;2022-09-11T00:40:14;3.43;;;2.90;;
17592;SDS011;8915;51.760;14.300;2022-09-11T00:42:41;2.90;;;2.70;;
17592;SDS011;8915;51.760;14.300;2022-09-11T00:45:15;3.47;;;3.17;;
17592;SDS011;8915;51.760;14.300;2022-09-11T00:47:44;6.57;;;2.80;;
17592;SDS011;8915;51.760;14.300;2022-09-11T00:50:11;3.47;;;3.13;;
17592;SDS011;8915;51.760;14.300;2022-09-11T00:52:45;3.87;;;3.37;;
17592;SDS011;8915;51.760;14.300;2022-09-11T00:55:17;2.90;;;2.60;;
17592;SDS011;8915;51.760;14.300;2022-09-11T00:57:48;3.43;;;3.13;;
17592;SDS011;8915;51.760;14.300;2022-09-11T01:00:17;5.13;;;3.57;;
17592;SDS011;8915;51.760;14.300;2022-09-11T01:02:45;4.03;;;3.07;;
17592;SDS011;8915;51.760;14.300;2022-09-11T01:05:13;3.90;;;3.50;;
17592;SDS011;8915;51.760;14.300;2022-09-11T01:07:40;3.37;;;3.07;;
17592;SDS011;8915;51.760;14.300;2022-09-11T01:10:09;3.43;;;2.93;;
17592;SDS011;8915;51.760;14.300;2022-09-11T01:12:38;3.60;;;3.17;;
17592;SDS011;8915;51.760;14.300;2022-09-11T01:15:16;4.47;;;3.23;;
17592;SDS011;8915;51.760;14.300;2022-09-11T01:17:49;3.77;;;3.27;;
17592;SDS011;8915;51.760;14.300;2022-09-11T01:20:26;3.30;;;3.00;;
17592;SDS011;8915;51.760;14.300;2022-09-11T01:23:12;3.50;;;3.20;;
17592;SDS011;8915;51.760;14.300;2022-09-11T01:29:03;4.33;;;2.80;;
17592;SDS011;8915;51.760;14.300;2022-09-11T01:31:36;3.47;;;3.17;;
17592;SDS011;8915;51.760;14.300;2022-09-11T01:34:12;4.50;;;3.73;;
17592;SDS011;8915;51.760;14.300;2022-09-11T01:36:46;4.07;;;3.40;;
17592;SDS011;8915;51.760;14.300;2022-09-11T01:39:18;3.50;;;3.20;;
17592;SDS011;8915;51.760;14.300;2022-09-11T01:41:49;6.00;;;3.27;;
17592;SDS011;8915;51.760;14.300;2022-09-11T01:44:20;3.63;;;3.10;;
17592;SDS011;8915;51.760;14.300;2022-09-11T01:46:51;4.23;;;3.07;;
17592;SDS011;8915;51.760;14.300;2022-09-11T01:49:19;5.17;;;3.20;;
17592;SDS011;8915;51.760;14.300;2022-09-11T01:51:51;3.50;;;3.20;;
17592;SDS011;8915;51.760;14.300;2022-09-11T01:54:21;4.30;;;3.27;;
17592;SDS011;8915;51.760;14.300;2022-09-11T01:56:54;5.20;;;3.70;;
17592;SDS011;8915;51.760;14.300;2022-09-11T01:59:29;6.13;;;3.77;;
17592;SDS011;8915;51.760;14.300;2022-09-11T02:02:00;4.33;;;3.67;;
17592;SDS011;8915;51.760;14.300;2022-09-11T02:04:32;4.17;;;3.77;;
17592;SDS011;8915;51.760;14.300;2022-09-11T02:10:58;4.67;;;3.33;;
17592;SDS011;8915;51.760;14.300;2022-09-11T02:13:33;4.00;;;3.50;;
17592;SDS011;8915;51.760;14.300;2022-09-11T02:16:11;3.47;;;3.17;;
17592;SDS011;8915;51.760;14.300;2022-09-11T02:18:42;4.07;;;3.67;;
17592;SDS011;8915;51.760;14.300;2022-09-11T02:21:16;4.33;;;3.73;;
17592;SDS011;8915;51.760;14.300;2022-09-11T02:23:42;5.33;;;3.47;;
17592;SDS011;8915;51.760;14.300;2022-09-11T02:26:09;3.67;;;3.27;;
17592;SDS011;8915;51.760;14.300;2022-09-11T02:28:39;3.77;;;3.37;;
17592;SDS011;8915;51.760;14.300;2022-09-11T02:31:06;4.40;;;3.50;;
17592;SDS011;8915;51.760;14.300;2022-09-11T02:33:35;4.60;;;3.43;;
17592;SDS011;8915;51.760;14.300;2022-09-11T02:36:07;4.17;;;3.77;;
17592;SDS011;8915;51.760;14.300;2022-09-11T02:38:49;4.50;;;3.57;;
17592;SDS011;8915;51.760;14.300;2022-09-11T02:41:26;3.53;;;3.23;;
17592;SDS011;8915;51.760;14.300;2022-09-11T02:43:57;4.50;;;3.43;;
17592;SDS011;8915;51.760;14.300;2022-09-11T02:46:37;4.63;;;4.00;;
17592;SDS011;8915;51.760;14.300;2022-09-11T02:49:22;3.50;;;3.20;;
17592;SDS011;8915;51.760;14.300;2022-09-11T02:51:59;5.60;;;3.77;;
17592;SDS011;8915;51.760;14.300;2022-09-11T02:54:33;3.80;;;3.20;;
17592;SDS011;8915;51.760;14.300;2022-09-11T02:57:10;3.93;;;3.17;;
17592;SDS011;8915;51.760;14.300;2022-09-11T02:59:44;3.37;;;2.73;;
17592;SDS011;8915;51.760;14.300;2022-09-11T03:02:17;4.27;;;3.50;;
17592;SDS011;8915;51.760;14.300;2022-09-11T03:04:50;4.93;;;3.57;;
17592;SDS011;8915;51.760;14.300;2022-09-11T03:07:16;4.13;;;3.67;;
17592;SDS011;8915;51.760;14.300;2022-09-11T03:09:43;4.67;;;3.70;;
17592;SDS011;8915;51.760;14.300;2022-09-11T03:12:17;4.40;;;3.67;;
17592;SDS011;8915;51.760;14.300;2022-09-11T03:14:47;3.93;;;3.57;;
17592;SDS011;8915;51.760;14.300;2022-09-11T03:17:13;4.90;;;3.30;;
17592;SDS011;8915;51.760;14.300;2022-09-11T03:19:41;3.80;;;3.40;;
17592;SDS011;8915;51.760;14.300;2022-09-11T03:22:08;4.37;;;3.60;;
17592;SDS011;8915;51.760;14.300;2022-09-11T03:24:35;3.53;;;3.23;;
17592;SDS011;8915;51.760;14.300;2022-09-11T03:27:01;4.50;;;3.57;;
17592;SDS011;8915;51.760;14.300;2022-09-11T03:29:28;4.50;;;3.40;;
17592;SDS011;8915;51.760;14.300;2022-09-11T03:31:55;4.50;;;3.60;;
17592;SDS011;8915;51.760;14.300;2022-09-11T03:34:22;4.10;;;3.70;;
17592;SDS011;8915;51.760;14.300;2022-09-11T03:36:49;6.03;;;3.20;;
17592;SDS011;8915;51.760;14.300;2022-09-11T03:39:17;3.73;;;3.10;;
17592;SDS011;8915;51.760;14.300;2022-09-11T03:41:44;3.50;;;3.17;;
17592;SDS011;8915;51.760;14.300;2022-09-11T03:44:10;5.33;;;3.30;;
17592;SDS011;8915;51.760;14.300;2022-09-11T03:46:37;5.00;;;3.50;;
17592;SDS011;8915;51.760;14.300;2022-09-11T03:49:04;4.37;;;3.97;;
17592;SDS011;8915;51.760;14.300;2022-09-11T03:51:31;3.40;;;3.03;;
17592;SDS011;8915;51.760;14.300;2022-09-11T03:53:58;4.03;;;3.27;;
17592;SDS011;8915;51.760;14.300;2022-09-11T03:56:28;3.40;;;3.10;;
17592;SDS011;8915;51.760;14.300;2022-09-11T03:58:55;3.87;;;3.17;;
17592;SDS011;8915;51.760;14.300;2022-09-11T04:01:23;4.07;;;3.43;;
17592;SDS011;8915;51.760;14.300;2022-09-11T04:03:51;4.60;;;3.80;;
17592;SDS011;8915;51.760;14.300;2022-09-11T04:06:26;3.23;;;2.93;;
17592;SDS011;8915;51.760;14.300;2022-09-11T04:08:54;6.00;;;4.13;;
17592;SDS011;8915;51.760;14.300;2022-09-11T04:11:20;3.90;;;3.43;;
17592;SDS011;8915;51.760;14.300;2022-09-11T04:13:50;4.33;;;3.63;;
17592;SDS011;8915;51.760;14.300;2022-09-11T04:16:18;4.20;;;3.70;;
17592;SDS011;8915;51.760;14.300;2022-09-11T04:18:50;3.93;;;3.50;;
17592;SDS011;8915;51.760;14.300;2022-09-11T04:21:18;4.00;;;3.33;;
17592;SDS011;8915;51.760;14.300;2022-09-11T04:23:49;6.10;;;3.67;;
17592;SDS011;8915;51.760;14.300;2022-09-11T04:26:18;3.87;;;3.47;;
17592;SDS011;8915;51.760;14.300;2022-09-11T04:28:51;4.20;;;3.60;;
17592;SDS011;8915;51.760;14.300;2022-09-11T04:31:19;4.90;;;3.63;;
17592;SDS011;8915;51.760;14.300;2022-09-11T04:33:47;3.43;;;3.03;;
17592;SDS011;8915;51.760;14.300;2022-09-11T04:36:14;4.37;;;3.77;;
17592;SDS011;8915;51.760;14.300;2022-09-11T04:38:42;5.43;;;3.80;;
17592;SDS011;8915;51.760;14.300;2022-09-11T04:41:11;4.73;;;3.90;;
17592;SDS011;8915;51.760;14.300;2022-09-11T04:43:39;5.63;;;4.57;;
17592;SDS011;8915;51.760;14.300;2022-09-11T04:46:11;5.77;;;3.70;;
17592;SDS011;8915;51.760;14.300;2022-09-11T04:48:43;4.63;;;3.80;;
17592;SDS011;8915;51.760;14.300;2022-09-11T04:51:14;4.90;;;4.23;;
17592;SDS011;8915;51.760;14.300;2022-09-11T04:53:45;6.33;;;4.47;;
17592;SDS011;8915;51.760;14.300;2022-09-11T04:56:14;5.97;;;4.47;;
17592;SDS011;8915;51.760;14.300;2022-09-11T04:58:44;7.43;;;5.23;;
17592;SDS011;8915;51.760;14.300;2022-09-11T05:01:13;4.73;;;4.13;;
17592;SDS011;8915;51.760;14.300;2022-09-11T05:03:46;5.83;;;4.93;;
17592;SDS011;8915;51.760;14.300;2022-09-11T05:06:12;6.70;;;5.27;;
17592;SDS011;8915;51.760;14.300;2022-09-11T05:08:41;5.90;;;5.03;;
17592;SDS011;8915;51.760;14.300;2022-09-11T05:11:09;9.47;;;6.17;;
17592;SDS011;8915;51.760;14.300;2022-09-11T05:13:37;9.90;;;7.10;;
17592;SDS011;8915;51.760;14.300;2022-09-11T05:16:04;11.90;;;6.70;;
17592;SDS011;8915;51.760;14.300;2022-09-11T05:18:33;14.67;;;7.70;;
17592;SDS011;8915;51.760;14.300;2022-09-11T05:21:01;12.37;;;7.50;;
17592;SDS011;8915;51.760;14.300;2022-09-11T05:23:29;14.30;;;7.70;;
17592;SDS011;8915;51.760;14.300;2022-09-11T05:25:58;8.87;;;6.53;;
17592;SDS011;8915;51.760;14.300;2022-09-11T05:28:26;13.23;;;7.77;;
17592;SDS011;8915;51.760;14.300;2022-09-11T05:30:53;14.10;;;8.50;;
17592;SDS011;8915;51.760;14.300;2022-09-11T05:33:22;13.37;;;7.83;;
17592;SDS011;8915;51.760;14.300;2022-09-11T05:35:51;14.20;;;8.43;;
17592;SDS011;8915;51.760;14.300;2022-09-11T05:38:22;16.10;;;10.07;;
17592;SDS011;8915;51.760;14.300;2022-09-11T05:40:50;15.70;;;9.77;;
17592;SDS011;8915;51.760;14.300;2022-09-11T05:43:19;14.00;;;9.17;;
17592;SDS011;8915;51.760;14.300;2022-09-11T05:45:52;15.10;;;8.57;;
17592;SDS011;8915;51.760;14.300;2022-09-11T05:48:19;12.80;;;8.27;;
17592;SDS011;8915;51.760;14.300;2022-09-11T05:50:52;16.00;;;9.60;;
17592;SDS011;8915;51.760;14.300;2022-09-11T05:53:20;12.00;;;8.33;;
17592;SDS011;8915;51.760;14.300;2022-09-11T05:55:47;14.37;;;8.40;;
17592;SDS011;8915;51.760;14.300;2022-09-11T05:58:15;12.60;;;8.60;;
17592;SDS011;8915;51.760;14.300;2022-09-11T06:00:43;16.60;;;8.40;;
17592;SDS011;8915;51.760;14.300;2022-09-11T06:03:11;14.53;;;7.97;;
17592;SDS011;8915;51.760;14.300;2022-09-11T06:05:37;18.07;;;9.23;;
17592;SDS011;8915;51.760;14.300;2022-09-11T06:08:06;16.93;;;8.73;;
17592;SDS011;8915;51.760;14.300;2022-09-11T06:10:34;12.00;;;8.40;;
17592;SDS011;8915;51.760;14.300;2022-09-11T06:13:00;11.83;;;8.07;;
17592;SDS011;8915;51.760;14.300;2022-09-11T06:15:29;14.17;;;8.23;;
17592;SDS011;8915;51.760;14.300;2022-09-11T06:17:57;16.63;;;9.43;;
17592;SDS011;8915;51.760;14.300;2022-09-11T06:20:25;18.60;;;9.43;;
17592;SDS011;8915;51.760;14.300;2022-09-11T06:22:52;14.17;;;8.60;;
17592;SDS011;8915;51.760;14.300;2022-09-11T06:25:20;15.30;;;8.37;;
17592;SDS011;8915;51.760;14.300;2022-09-11T06:27:46;16.33;;;8.13;;
17592;SDS011;8915;51.760;14.300;2022-09-11T06:30:14;11.27;;;8.00;;
17592;SDS011;8915;51.760;14.300;2022-09-11T06:32:42;13.70;;;7.90;;
17592;SDS011;8915;51.760;14.300;2022-09-11T06:35:08;13.27;;;8.43;;
17592;SDS011;8915;51.760;14.300;2022-09-11T06:37:35;15.83;;;8.40;;
17592;SDS011;8915;51.760;14.300;2022-09-11T06:40:02;15.73;;;8.23;;
17592;SDS011;8915;51.760;14.300;2022-09-11T06:42:30;20.07;;;8.97;;
17592;SDS011;8915;51.760;14.300;2022-09-11T06:44:59;14.60;;;8.57;;
17592;SDS011;8915;51.760;14.300;2022-09-11T06:47:28;12.97;;;8.23;;
17592;SDS011;8915;51.760;14.300;2022-09-11T06:49:55;14.77;;;8.83;;
17592;SDS011;8915;51.760;14.300;2022-09-11T06:52:31;18.30;;;9.23;;
17592;SDS011;8915;51.760;14.300;2022-09-11T06:55:10;16.53;;;9.00;;
17592;SDS011;8915;51.760;14.300;2022-09-11T06:57:40;17.33;;;9.93;;
17592;SDS011;8915;51.760;14.300;2022-09-11T07:00:09;18.40;;;10.00;;
17592;SDS011;8915;51.760;14.300;2022-09-11T07:02:38;18.13;;;9.23;;
17592;SDS011;8915;51.760;14.300;2022-09-11T07:05:08;18.70;;;9.83;;
17592;SDS011;8915;51.760;14.300;2022-09-11T07:07:35;16.30;;;8.20;;
17592;SDS011;8915;51.760;14.300;2022-09-11T07:10:05;16.90;;;9.30;;
17592;SDS011;8915;51.760;14.300;2022-09-11T07:12:33;15.73;;;8.90;;
17592;SDS011;8915;51.760;14.300;2022-09-11T07:15:01;18.37;;;10.70;;
17592;SDS011;8915;51.760;14.300;2022-09-11T07:17:28;16.77;;;8.73;;
17592;SDS011;8915;51.760;14.300;2022-09-11T07:19:54;17.93;;;9.80;;
17592;SDS011;8915;51.760;14.300;2022-09-11T07:22:21;17.73;;;9.73;;
17592;SDS011;8915;51.760;14.300;2022-09-11T07:24:48;13.77;;;8.63;;
17592;SDS011;8915;51.760;14.300;2022-09-11T07:27:17;16.70;;;10.40;;
17592;SDS011;8915;51.760;14.300;2022-09-11T07:29:43;14.57;;;9.77;;
17592;SDS011;8915;51.760;14.300;2022-09-11T07:32:12;15.57;;;8.87;;
17592;SDS011;8915;51.760;14.300;2022-09-11T07:34:39;15.03;;;9.27;;
17592;SDS011;8915;51.760;14.300;2022-09-11T07:37:08;14.73;;;8.87;;
17592;SDS011;8915;51.760;14.300;2022-09-11T07:39:36;13.47;;;9.00;;
17592;SDS011;8915;51.760;14.300;2022-09-11T07:42:07;13.30;;;8.07;;
17592;SDS011;8915;51.760;14.300;2022-09-11T07:44:35;12.13;;;8.53;;
17592;SDS011;8915;51.760;14.300;2022-09-11T07:47:01;11.80;;;7.03;;
17592;SDS011;8915;51.760;14.300;2022-09-11T07:49:36;10.03;;;7.33;;
17592;SDS011;8915;51.760;14.300;2022-09-11T07:52:03;14.13;;;7.67;;
17592;SDS011;8915;51.760;14.300;2022-09-11T07:54:38;10.40;;;6.43;;
17592;SDS011;8915;51.760;14.300;2022-09-11T07:57:05;14.13;;;7.30;;
17592;SDS011;8915;51.760;14.300;2022-09-11T07:59:31;10.53;;;7.23;;
17592;SDS011;8915;51.760;14.300;2022-09-11T08:01:58;11.30;;;6.57;;
17592;SDS011;8915;51.760;14.300;2022-09-11T08:04:24;10.63;;;6.70;;
17592;SDS011;8915;51.760;14.300;2022-09-11T08:06:53;10.47;;;6.83;;
17592;SDS011;8915;51.760;14.300;2022-09-11T08:09:26;10.83;;;7.07;;
17592;SDS011;8915;51.760;14.300;2022-09-11T08:11:54;11.83;;;7.53;;
17592;SDS011;8915;51.760;14.300;2022-09-11T08:14:23;11.87;;;7.17;;
17592;SDS011;8915;51.760;14.300;2022-09-11T08:16:52;13.27;;;7.40;;
17592;SDS011;8915;51.760;14.300;2022-09-11T08:19:21;11.50;;;7.30;;
17592;SDS011;8915;51.760;14.300;2022-09-11T08:21:54;12.90;;;7.60;;
17592;SDS011;8915;51.760;14.300;2022-09-11T08:24:21;10.10;;;7.37;;
17592;SDS011;8915;51.760;14.300;2022-09-11T08:26:50;16.63;;;8.00;;
17592;SDS011;8915;51.760;14.300;2022-09-11T08:29:18;12.73;;;8.07;;
17592;SDS011;8915;51.760;14.300;2022-09-11T08:31:45;11.30;;;6.93;;
17592;SDS011;8915;51.760;14.300;2022-09-11T08:34:12;11.20;;;6.90;;
17592;SDS011;8915;51.760;14.300;2022-09-11T08:36:39;12.37;;;7.13;;
17592;SDS011;8915;51.760;14.300;2022-09-11T08:39:08;11.30;;;6.93;;
17592;SDS011;8915;51.760;14.300;2022-09-11T08:41:41;9.80;;;6.50;;
17592;SDS011;8915;51.760;14.300;2022-09-11T08:44:14;9.20;;;6.30;;
17592;SDS011;8915;51.760;14.300;2022-09-11T08:46:44;10.80;;;7.40;;
17592;SDS011;8915;51.760;14.300;2022-09-11T08:49:15;9.87;;;6.43;;
17592;SDS011;8915;51.760;14.300;2022-09-11T08:51:46;10.67;;;6.77;;
17592;SDS011;8915;51.760;14.300;2022-09-11T08:54:18;11.27;;;7.37;;
17592;SDS011;8915;51.760;14.300;2022-09-11T08:56:54;10.20;;;6.87;;
17592;SDS011;8915;51.760;14.300;2022-09-11T08:59:33;11.20;;;6.80;;
17592;SDS011;8915;51.760;14.300;2022-09-11T09:02:13;10.07;;;6.70;;
17592;SDS011;8915;51.760;14.300;2022-09-11T09:04:57;10.67;;;6.50;;
17592;SDS011;8915;51.760;14.300;2022-09-11T09:07:41;11.27;;;7.13;;
17592;SDS011;8915;51.760;14.300;2022-09-11T09:10:21;10.37;;;7.33;;
17592;SDS011;8915;51.760;14.300;2022-09-11T09:13:01;10.13;;;6.97;;
17592;SDS011;8915;51.760;14.300;2022-09-11T09:15:41;14.17;;;8.33;;
17592;SDS011;8915;51.760;14.300;2022-09-11T09:18:21;11.30;;;6.90;;
17592;SDS011;8915;51.760;14.300;2022-09-11T09:20:59;7.87;;;6.03;;
17592;SDS011;8915;51.760;14.300;2022-09-11T09:23:34;9.50;;;6.87;;
17592;SDS011;8915;51.760;14.300;2022-09-11T09:26:06;10.37;;;6.93;;
17592;SDS011;8915;51.760;14.300;2022-09-11T09:28:40;9.97;;;6.77;;
17592;SDS011;8915;51.760;14.300;2022-09-11T09:31:11;10.23;;;6.50;;
17592;SDS011;8915;51.760;14.300;2022-09-11T09:33:42;10.77;;;6.67;;
17592;SDS011;8915;51.760;14.300;2022-09-11T09:36:14;7.50;;;5.53;;
17592;SDS011;8915;51.760;14.300;2022-09-11T09:38:44;9.43;;;6.00;;
17592;SDS011;8915;51.760;14.300;2022-09-11T09:44:17;8.67;;;6.07;;
17592;SDS011;8915;51.760;14.300;2022-09-11T09:46:52;9.27;;;6.43;;
17592;SDS011;8915;51.760;14.300;2022-09-11T09:49:20;9.17;;;6.07;;
17592;SDS011;8915;51.760;14.300;2022-09-11T09:51:50;11.40;;;6.47;;
17592;SDS011;8915;51.760;14.300;2022-09-11T09:54:19;9.10;;;5.87;;
17592;SDS011;8915;51.760;14.300;2022-09-11T09:56:54;8.97;;;6.87;;
17592;SDS011;8915;51.760;14.300;2022-09-11T09:59:25;10.57;;;6.93;;
17592;SDS011;8915;51.760;14.300;2022-09-11T10:01:57;10.70;;;7.53;;
17592;SDS011;8915;51.760;14.300;2022-09-11T10:04:24;9.47;;;6.07;;
17592;SDS011;8915;51.760;14.300;2022-09-11T10:06:52;10.40;;;6.90;;
17592;SDS011;8915;51.760;14.300;2022-09-11T10:09:30;10.60;;;7.00;;
17592;SDS011;8915;51.760;14.300;2022-09-11T10:11:59;9.27;;;6.53;;
17592;SDS011;8915;51.760;14.300;2022-09-11T10:14:28;9.63;;;7.00;;
17592;SDS011;8915;51.760;14.300;2022-09-11T10:16:57;8.53;;;5.67;;
17592;SDS011;8915;51.760;14.300;2022-09-11T10:19:35;10.73;;;6.57;;
17592;SDS011;8915;51.760;14.300;2022-09-11T10:22:23;8.70;;;6.37;;
17592;SDS011;8915;51.760;14.300;2022-09-11T10:24:56;11.33;;;6.50;;
17592;SDS011;8915;51.760;14.300;2022-09-11T10:27:27;10.17;;;6.57;;
17592;SDS011;8915;51.760;14.300;2022-09-11T10:29:56;9.97;;;6.83;;
17592;SDS011;8915;51.760;14.300;2022-09-11T10:32:23;9.13;;;6.33;;
17592;SDS011;8915;51.760;14.300;2022-09-11T10:34:50;10.70;;;6.93;;
17592;SDS011;8915;51.760;14.300;2022-09-11T10:37:21;12.40;;;7.30;;
17592;SDS011;8915;51.760;14.300;2022-09-11T10:39:49;10.30;;;7.17;;
17592;SDS011;8915;51.760;14.300;2022-09-11T10:42:17;10.67;;;6.60;;
17592;SDS011;8915;51.760;14.300;2022-09-11T10:44:49;10.13;;;6.50;;
17592;SDS011;8915;51.760;14.300;2022-09-11T10:47:21;9.40;;;6.60;;
17592;SDS011;8915;51.760;14.300;2022-09-11T10:49:49;9.03;;;6.17;;
17592;SDS011;8915;51.760;14.300;2022-09-11T10:52:38;9.73;;;6.07;;
17592;SDS011;8915;51.760;14.300;2022-09-11T10:55:13;11.00;;;6.13;;
17592;SDS011;8915;51.760;14.300;2022-09-11T10:57:42;9.93;;;6.17;;
17592;SDS011;8915;51.760;14.300;2022-09-11T11:00:12;8.83;;;5.83;;
17592;SDS011;8915;51.760;14.300;2022-09-11T11:02:44;7.63;;;5.67;;
17592;SDS011;8915;51.760;14.300;2022-09-11T11:05:17;6.87;;;5.63;;
17592;SDS011;8915;51.760;14.300;2022-09-11T11:08:02;9.17;;;5.90;;
17592;SDS011;8915;51.760;14.300;2022-09-11T11:10:39;9.23;;;5.80;;
17592;SDS011;8915;51.760;14.300;2022-09-11T11:13:22;8.10;;;5.63;;
17592;SDS011;8915;51.760;14.300;2022-09-11T11:16:04;9.90;;;6.43;;
17592;SDS011;8915;51.760;14.300;2022-09-11T11:18:42;7.43;;;4.77;;
17592;SDS011;8915;51.760;14.300;2022-09-11T11:21:20;8.03;;;5.60;;
17592;SDS011;8915;51.760;14.300;2022-09-11T11:24:00;7.83;;;5.87;;
17592;SDS011;8915;51.760;14.300;2022-09-11T11:26:42;5.67;;;4.73;;
17592;SDS011;8915;51.760;14.300;2022-09-11T11:29:20;6.47;;;4.60;;
17592;SDS011;8915;51.760;14.300;2022-09-11T11:32:07;8.23;;;4.83;;
17592;SDS011;8915;51.760;14.300;2022-09-11T11:34:45;6.97;;;3.93;;
17592;SDS011;8915;51.760;14.300;2022-09-11T11:37:26;8.13;;;4.90;;
17592;SDS011;8915;51.760;14.300;2022-09-11T11:39:58;7.87;;;4.57;;
17592;SDS011;8915;51.760;14.300;2022-09-11T11:42:28;4.87;;;4.20;;
17592;SDS011;8915;51.760;14.300;2022-09-11T11:45:02;6.80;;;4.60;;
17592;SDS011;8915;51.760;14.300;2022-09-11T11:47:35;7.23;;;5.07;;
17592;SDS011;8915;51.760;14.300;2022-09-11T11:50:08;5.67;;;4.37;;
17592;SDS011;8915;51.760;14.300;2022-09-11T11:52:45;5.17;;;4.07;;
17592;SDS011;8915;51.760;14.300;2022-09-11T11:55:19;5.73;;;4.07;;
17592;SDS011;8915;51.760;14.300;2022-09-11T11:57:52;8.23;;;4.47;;
17592;SDS011;8915;51.760;14.300;2022-09-11T12:00:25;8.63;;;5.03;;
17592;SDS011;8915;51.760;14.300;2022-09-11T12:02:56;5.87;;;4.17;;
17592;SDS011;8915;51.760;14.300;2022-09-11T12:05:31;5.67;;;4.47;;
17592;SDS011;8915;51.760;14.300;2022-09-11T12:07:58;4.40;;;4.00;;
17592;SDS011;8915;51.760;14.300;2022-09-11T12:10:27;4.77;;;3.83;;
17592;SDS011;8915;51.760;14.300;2022-09-11T12:12:57;5.77;;;4.10;;
17592;SDS011;8915;51.760;14.300;2022-09-11T12:15:26;5.17;;;3.93;;
17592;SDS011;8915;51.760;14.300;2022-09-11T12:17:58;11.80;;;6.53;;
17592;SDS011;8915;51.760;14.300;2022-09-11T12:20:29;5.47;;;3.87;;
17592;SDS011;8915;51.760;14.300;2022-09-11T12:22:58;8.40;;;6.13;;
17592;SDS011;8915;51.760;14.300;2022-09-11T12:28:41;4.60;;;3.70;;
17592;SDS011;8915;51.760;14.300;2022-09-11T12:31:07;4.80;;;3.77;;
17592;SDS011;8915;51.760;14.300;2022-09-11T12:36:26;5.17;;;3.37;;
17592;SDS011;8915;51.760;14.300;2022-09-11T12:39:17;7.40;;;4.33;;
17592;SDS011;8915;51.760;14.300;2022-09-11T12:41:49;6.10;;;3.70;;
17592;SDS011;8915;51.760;14.300;2022-09-11T12:44:29;3.60;;;3.30;;
17592;SDS011;8915;51.760;14.300;2022-09-11T12:47:06;6.73;;;3.63;;
17592;SDS011;8915;51.760;14.300;2022-09-11T12:49:39;5.70;;;3.13;;
17592;SDS011;8915;51.760;14.300;2022-09-11T12:52:24;4.00;;;3.30;;
17592;SDS011;8915;51.760;14.300;2022-09-11T12:54:55;4.57;;;3.33;;
17592;SDS011;8915;51.760;14.300;2022-09-11T12:57:27;4.10;;;3.53;;
17592;SDS011;8915;51.760;14.300;2022-09-11T13:00:00;4.93;;;3.10;;
17592;SDS011;8915;51.760;14.300;2022-09-11T13:02:31;3.37;;;2.73;;
17592;SDS011;8915;51.760;14.300;2022-09-11T13:05:01;5.10;;;3.30;;
17592;SDS011;8915;51.760;14.300;2022-09-11T13:07:30;3.87;;;2.80;;
17592;SDS011;8915;51.760;14.300;2022-09-11T13:10:06;4.90;;;3.00;;
17592;SDS011;8915;51.760;14.300;2022-09-11T13:12:49;4.27;;;3.27;;
17592;SDS011;8915;51.760;14.300;2022-09-11T13:15:31;4.67;;;3.17;;
17592;SDS011;8915;51.760;14.300;2022-09-11T13:18:14;3.57;;;3.00;;
17592;SDS011;8915;51.760;14.300;2022-09-11T13:20:56;4.10;;;3.13;;
17592;SDS011;8915;51.760;14.300;2022-09-11T13:23:24;3.37;;;2.93;;
17592;SDS011;8915;51.760;14.300;2022-09-11T13:25:52;3.77;;;2.87;;
17592;SDS011;8915;51.760;14.300;2022-09-11T13:28:19;5.60;;;3.00;;
17592;SDS011;8915;51.760;14.300;2022-09-11T13:30:53;3.37;;;2.70;;
17592;SDS011;8915;51.760;14.300;2022-09-11T13:33:22;3.80;;;2.60;;
17592;SDS011;8915;51.760;14.300;2022-09-11T13:35:52;4.53;;;3.13;;
17592;SDS011;8915;51.760;14.300;2022-09-11T13:38:22;4.67;;;3.03;;
17592;SDS011;8915;51.760;14.300;2022-09-11T13:40:51;4.53;;;2.60;;
17592;SDS011;8915;51.760;14.300;2022-09-11T13:43:22;2.73;;;2.37;;
17592;SDS011;8915;51.760;14.300;2022-09-11T13:48:53;3.20;;;2.40;;
17592;SDS011;8915;51.760;14.300;2022-09-11T13:51:24;2.87;;;2.57;;
17592;SDS011;8915;51.760;14.300;2022-09-11T13:53:57;3.77;;;2.80;;
17592;SDS011;8915;51.760;14.300;2022-09-11T13:56:37;3.17;;;2.60;;
17592;SDS011;8915;51.760;14.300;2022-09-11T13:59:24;4.33;;;2.97;;
17592;SDS011;8915;51.760;14.300;2022-09-11T14:01:52;5.33;;;2.80;;
17592;SDS011;8915;51.760;14.300;2022-09-11T14:04:20;3.87;;;2.63;;
17592;SDS011;8915;51.760;14.300;2022-09-11T14:06:47;2.70;;;2.37;;
17592;SDS011;8915;51.760;14.300;2022-09-11T14:09:15;3.77;;;2.40;;
17592;SDS011;8915;51.760;14.300;2022-09-11T14:11:45;2.77;;;2.57;;
17592;SDS011;8915;51.760;14.300;2022-09-11T14:14:14;2.67;;;2.40;;
17592;SDS011;8915;51.760;14.300;2022-09-11T14:16:48;2.80;;;2.38;;
17592;SDS011;8915;51.760;14.300;2022-09-11T14:19:19;3.00;;;2.70;;
17592;SDS011;8915;51.760;14.300;2022-09-11T14:21:48;2.47;;;2.22;;
17592;SDS011;8915;51.760;14.300;2022-09-11T14:24:24;3.50;;;2.53;;
17592;SDS011;8915;51.760;14.300;2022-09-11T14:26:54;3.37;;;2.40;;
17592;SDS011;8915;51.760;14.300;2022-09-11T14:29:22;4.53;;;2.20;;
17592;SDS011;8915;51.760;14.300;2022-09-11T14:31:50;3.10;;;2.67;;
17592;SDS011;8915;51.760;14.300;2022-09-11T14:34:18;3.50;;;2.73;;
17592;SDS011;8915;51.760;14.300;2022-09-11T14:36:47;4.90;;;3.23;;
17592;SDS011;8915;51.760;14.300;2022-09-11T14:39:25;5.53;;;3.25;;
17592;SDS011;8915;51.760;14.300;2022-09-11T14:41:55;4.30;;;3.13;;
17592;SDS011;8915;51.760;14.300;2022-09-11T14:44:22;3.15;;;2.80;;
17592;SDS011;8915;51.760;14.300;2022-09-11T14:46:50;3.88;;;2.90;;
17592;SDS011;8915;51.760;14.300;2022-09-11T14:49:17;3.83;;;2.92;;
17592;SDS011;8915;51.760;14.300;2022-09-11T14:51:44;3.20;;;2.58;;
17592;SDS011;8915;51.760;14.300;2022-09-11T14:54:17;3.00;;;2.55;;
17592;SDS011;8915;51.760;14.300;2022-09-11T14:56:47;3.30;;;2.70;;
17592;SDS011;8915;51.760;14.300;2022-09-11T14:59:14;3.05;;;2.75;;
17592;SDS011;8915;51.760;14.300;2022-09-11T15:01:40;3.95;;;2.88;;
17592;SDS011;8915;51.760;14.300;2022-09-11T15:04:08;3.60;;;2.38;;
17592;SDS011;8915;51.760;14.300;2022-09-11T15:06:38;3.07;;;2.40;;
17592;SDS011;8915;51.760;14.300;2022-09-11T15:09:04;3.75;;;2.60;;
17592;SDS011;8915;51.760;14.300;2022-09-11T15:11:31;2.78;;;2.20;;
17592;SDS011;8915;51.760;14.300;2022-09-11T15:13:59;2.53;;;2.30;;
17592;SDS011;8915;51.760;14.300;2022-09-11T15:16:25;2.53;;;2.28;;
17592;SDS011;8915;51.760;14.300;2022-09-11T15:18:52;5.15;;;2.03;;
17592;SDS011;8915;51.760;14.300;2022-09-11T15:21:18;2.93;;;1.93;;
17592;SDS011;8915;51.760;14.300;2022-09-11T15:23:45;2.83;;;1.90;;